createdAt,value
2022-12-27T00:02:26.451Z,7.87
2022-12-27T00:04:55.219Z,8.10
2022-12-27T00:07:23.747Z,6.77
2022-12-27T00:09:52.339Z,6.87
2022-12-27T00:12:22.196Z,7.07
2022-12-27T00:14:50.721Z,7.57
2022-12-27T00:17:19.240Z,7.77
2022-12-27T00:19:47.747Z,7.67
2022-12-27T00:22:16.260Z,6.17
2022-12-27T00:24:44.793Z,6.67
2022-12-27T00:27:13.272Z,7.03
2022-12-27T00:29:43.206Z,6.23
2022-12-27T00:32:11.717Z,7.47
2022-12-27T00:34:40.264Z,6.23
2022-12-27T00:37:08.932Z,8.33
2022-12-27T00:39:38.534Z,7.43
2022-12-27T00:42:07.134Z,9.47
2022-12-27T00:44:35.645Z,8.83
2022-12-27T00:47:05.762Z,7.93
2022-12-27T00:49:34.228Z,8.60
2022-12-27T00:52:02.750Z,9.03
2022-12-27T00:54:31.263Z,8.77
2022-12-27T00:56:59.806Z,8.60
2022-12-27T00:59:28.493Z,9.00
2022-12-27T01:01:57.071Z,9.40
2022-12-27T01:04:27.535Z,9.03
2022-12-27T01:06:56.065Z,9.20
2022-12-27T01:09:24.584Z,9.57
2022-12-27T01:11:53.116Z,8.53
2022-12-27T01:14:21.716Z,8.90
2022-12-27T01:16:50.306Z,8.57
2022-12-27T01:19:19.092Z,9.50
2022-12-27T01:21:49.067Z,8.53
2022-12-27T01:24:17.577Z,8.37
2022-12-27T01:26:46.237Z,7.37
2022-12-27T01:29:14.893Z,8.27
2022-12-27T01:31:43.501Z,8.30
2022-12-27T01:34:12.051Z,7.47
2022-12-27T01:36:40.549Z,8.33
2022-12-27T01:39:11.711Z,7.57
2022-12-27T01:41:59.483Z,6.47
2022-12-27T01:44:58.405Z,6.33
2022-12-27T01:47:33.663Z,5.63
2022-12-27T01:50:10.717Z,5.83
2022-12-27T01:52:41.172Z,5.77
2022-12-27T01:55:21.201Z,5.27
2022-12-27T01:57:50.443Z,4.83
2022-12-27T02:00:19.155Z,4.90
2022-12-27T02:02:47.870Z,4.80
2022-12-27T02:05:19.127Z,5.23
2022-12-27T02:07:57.439Z,4.83
2022-12-27T02:10:28.079Z,5.43
2022-12-27T02:12:56.687Z,3.80
2022-12-27T02:15:25.201Z,4.10
2022-12-27T02:17:53.751Z,4.43
2022-12-27T02:20:24.301Z,4.77
2022-12-27T02:23:51.657Z,4.23
2022-12-27T02:26:48.950Z,5.07
2022-12-27T02:29:37.105Z,5.53
2022-12-27T02:32:07.760Z,5.20
2022-12-27T02:34:43.975Z,6.83
2022-12-27T02:37:14.487Z,8.57
2022-12-27T02:39:45.005Z,5.23
2022-12-27T02:42:32.846Z,5.30
2022-12-27T02:45:20.607Z,3.70
2022-12-27T02:48:08.137Z,2.97
2022-12-27T02:51:00.186Z,4.53
2022-12-27T02:53:35.012Z,5.53
2022-12-27T02:56:31.514Z,3.73
2022-12-27T02:59:11.879Z,3.57
2022-12-27T03:02:05.785Z,3.73
2022-12-27T03:04:50.448Z,3.57
2022-12-27T03:07:35.485Z,3.90
2022-12-27T03:10:37.347Z,3.30
2022-12-27T03:13:35.589Z,3.67
2022-12-27T03:16:13.925Z,3.10
2022-12-27T03:19:06.404Z,2.60
2022-12-27T03:21:56.291Z,3.13
2022-12-27T03:24:44.192Z,3.37
2022-12-27T03:27:18.265Z,2.30
2022-12-27T03:30:07.294Z,2.57
2022-12-27T03:32:56.277Z,2.77
2022-12-27T03:35:27.816Z,2.20
2022-12-27T03:38:03.788Z,2.40
2022-12-27T03:41:07.074Z,3.07
2022-12-27T03:43:35.757Z,2.67
2022-12-27T03:46:41.971Z,2.77
2022-12-27T03:49:16.895Z,2.40
2022-12-27T03:51:50.001Z,2.20
2022-12-27T03:54:26.440Z,2.07
2022-12-27T03:56:56.657Z,2.27
2022-12-27T03:59:25.462Z,1.80
2022-12-27T04:01:54.233Z,2.10
2022-12-27T04:04:22.983Z,1.80
2022-12-27T04:06:53.085Z,2.03
2022-12-27T04:09:39.586Z,1.80
2022-12-27T04:12:25.896Z,1.90
2022-12-27T04:15:12.065Z,2.53
2022-12-27T04:17:58.192Z,3.03
2022-12-27T04:20:44.681Z,1.87
2022-12-27T04:23:32.137Z,2.20
2022-12-27T04:26:18.231Z,2.10
2022-12-27T04:29:04.099Z,2.40
2022-12-27T04:31:49.966Z,4.50
2022-12-27T04:34:35.841Z,6.07
2022-12-27T04:37:04.454Z,6.13
2022-12-27T04:39:34.516Z,6.13
2022-12-27T04:42:20.554Z,4.30
2022-12-27T04:45:11.599Z,3.43
2022-12-27T04:48:01.392Z,2.27
2022-12-27T04:50:49.655Z,2.73
2022-12-27T04:53:37.812Z,2.40
2022-12-27T04:56:08.330Z,2.20
2022-12-27T04:58:56.972Z,3.77
2022-12-27T05:01:39.800Z,9.83
2022-12-27T05:04:08.523Z,8.80
2022-12-27T05:06:37.050Z,5.97
2022-12-27T05:09:23.459Z,4.73
2022-12-27T05:12:10.791Z,4.40
2022-12-27T05:14:39.365Z,4.60
2022-12-27T05:17:07.833Z,3.73
2022-12-27T05:19:36.638Z,4.90
2022-12-27T05:22:22.901Z,5.20
2022-12-27T05:25:08.925Z,9.20
2022-12-27T05:27:38.878Z,6.10
2022-12-27T05:30:08.404Z,6.00
2022-12-27T05:32:37.041Z,5.17
2022-12-27T05:35:06.345Z,4.80
2022-12-27T05:37:34.862Z,4.43
2022-12-27T05:40:03.423Z,7.83
2022-12-27T05:42:32.844Z,9.03
2022-12-27T05:45:02.943Z,4.93
2022-12-27T05:47:31.433Z,4.10
2022-12-27T05:49:59.953Z,6.97
2022-12-27T05:52:28.428Z,7.70
2022-12-27T05:54:56.963Z,9.37
2022-12-27T05:57:25.474Z,6.20
2022-12-27T05:59:54.060Z,4.67
2022-12-27T06:02:24.159Z,4.23
2022-12-27T06:04:52.835Z,4.03
2022-12-27T06:07:21.400Z,4.03
2022-12-27T06:09:50.247Z,2.97
2022-12-27T06:12:18.748Z,3.63
2022-12-27T06:14:47.347Z,3.00
2022-12-27T06:17:15.857Z,2.33
2022-12-27T06:19:45.780Z,2.27
2022-12-27T06:22:14.297Z,2.37
2022-12-27T06:24:42.870Z,1.67
2022-12-27T06:27:11.370Z,3.13
2022-12-27T06:29:39.877Z,11.43
2022-12-27T06:32:08.404Z,15.50
2022-12-27T06:34:36.933Z,10.03
2022-12-27T06:37:06.904Z,5.83
2022-12-27T06:39:35.400Z,4.10
2022-12-27T06:42:04.153Z,3.40
2022-12-27T06:44:32.657Z,3.80
2022-12-27T06:47:01.129Z,2.90
2022-12-27T06:49:29.760Z,4.23
2022-12-27T06:51:59.899Z,7.00
2022-12-27T06:54:30.756Z,16.83
2022-12-27T06:56:59.344Z,13.27
2022-12-27T06:59:27.974Z,7.80
2022-12-27T07:01:56.687Z,9.53
2022-12-27T07:04:25.289Z,11.90
2022-12-27T07:06:53.799Z,6.50
2022-12-27T07:09:22.327Z,9.50
2022-12-27T07:11:53.547Z,8.33
2022-12-27T07:14:22.097Z,7.50
2022-12-27T07:16:51.067Z,8.80
2022-12-27T07:19:19.596Z,17.60
2022-12-27T07:21:48.069Z,12.83
2022-12-27T07:24:16.720Z,10.40
2022-12-27T07:26:45.313Z,10.73
2022-12-27T07:29:15.354Z,12.13
2022-12-27T07:31:44.100Z,7.90
2022-12-27T07:34:12.818Z,7.70
2022-12-27T07:36:41.734Z,10.30
2022-12-27T07:39:11.060Z,8.17
2022-12-27T07:41:39.687Z,5.93
2022-12-27T07:44:09.158Z,31.80
2022-12-27T07:46:40.027Z,23.03
2022-12-27T07:49:17.400Z,11.37
2022-12-27T07:51:46.493Z,7.27
2022-12-27T07:54:15.171Z,5.93
2022-12-27T07:56:43.645Z,7.57
2022-12-27T07:59:14.035Z,8.93
2022-12-27T08:01:57.937Z,33.83
2022-12-27T08:04:26.699Z,49.03
2022-12-27T08:06:57.241Z,51.60
2022-12-27T08:09:29.392Z,46.40
2022-12-27T08:11:57.890Z,25.27
2022-12-27T08:14:26.464Z,21.90
2022-12-27T08:16:57.581Z,16.97
2022-12-27T08:19:26.114Z,13.70
2022-12-27T08:21:54.658Z,10.23
2022-12-27T08:24:23.146Z,9.17
2022-12-27T08:26:51.727Z,41.17
2022-12-27T08:29:20.421Z,29.90
2022-12-27T08:31:49.101Z,14.97
2022-12-27T08:34:19.387Z,13.97
2022-12-27T08:36:56.456Z,12.40
2022-12-27T08:39:25.433Z,17.33
2022-12-27T08:41:54.907Z,15.20
2022-12-27T08:44:23.700Z,13.90
2022-12-27T08:46:52.656Z,10.80
2022-12-27T08:49:22.933Z,8.23
2022-12-27T08:51:51.613Z,6.60
2022-12-27T08:54:20.076Z,7.83
2022-12-27T08:56:48.898Z,11.80
2022-12-27T08:59:17.730Z,18.43
2022-12-27T09:01:46.480Z,15.47
2022-12-27T09:04:15.061Z,15.43
2022-12-27T09:06:44.949Z,17.17
2022-12-27T09:09:13.465Z,15.27
2022-12-27T09:11:41.969Z,13.20
2022-12-27T09:14:11.287Z,12.50
2022-12-27T09:16:40.244Z,11.60
2022-12-27T09:19:08.946Z,12.37
2022-12-27T09:21:41.707Z,15.20
2022-12-27T09:24:13.023Z,20.33
2022-12-27T09:26:42.455Z,16.73
2022-12-27T09:29:11.830Z,15.43
2022-12-27T09:31:40.395Z,14.10
2022-12-27T09:34:09.017Z,52.93
2022-12-27T09:36:40.109Z,20.93
2022-12-27T09:39:10.298Z,10.53
2022-12-27T09:42:46.007Z,10.27
2022-12-27T09:44:44.428Z,17.50
2022-12-27T09:47:16.267Z,11.87
2022-12-27T09:49:47.868Z,11.17
2022-12-27T09:52:20.325Z,9.90
2022-12-27T09:55:01.024Z,8.63
2022-12-27T09:57:38.378Z,9.07
2022-12-27T10:00:15.894Z,9.27
2022-12-27T10:02:45.439Z,10.67
2022-12-27T10:05:22.333Z,11.03
2022-12-27T10:08:11.417Z,14.53
2022-12-27T10:10:44.604Z,11.57
2022-12-27T10:13:26.724Z,7.50
2022-12-27T10:16:02.271Z,4.23
2022-12-27T10:18:41.633Z,7.13
2022-12-27T10:21:19.228Z,1.87
2022-12-27T10:23:54.144Z,0.93
2022-12-27T10:26:23.265Z,8.93
2022-12-27T10:28:57.773Z,5.83
2022-12-27T10:31:26.985Z,3.30
2022-12-27T10:33:56.097Z,4.17
2022-12-27T10:36:26.661Z,4.03
2022-12-27T10:38:56.136Z,0.90
2022-12-27T10:41:34.791Z,0.67
2022-12-27T10:44:11.503Z,3.13
2022-12-27T10:46:40.658Z,2.93
2022-12-27T10:49:22.479Z,1.60
2022-12-27T10:51:52.792Z,0.53
2022-12-27T10:54:24.668Z,0.30
2022-12-27T10:56:54.082Z,0.50
2022-12-27T10:59:25.467Z,0.60
2022-12-27T11:02:18.323Z,0.93
2022-12-27T11:05:00.307Z,0.50
2022-12-27T11:07:33.345Z,0.90
2022-12-27T11:10:13.494Z,6.37
2022-12-27T11:12:56.465Z,2.13
2022-12-27T11:15:27.411Z,1.20
2022-12-27T11:17:57.666Z,0.50
2022-12-27T11:20:28.549Z,0.80
2022-12-27T11:22:59.806Z,0.70
2022-12-27T11:25:29.372Z,1.13
2022-12-27T11:28:00.733Z,1.17
2022-12-27T11:30:32.764Z,7.43
2022-12-27T11:33:05.174Z,3.40
2022-12-27T11:35:36.975Z,0.70
2022-12-27T11:38:05.542Z,0.60
2022-12-27T11:40:35.921Z,6.77
2022-12-27T11:43:08.462Z,2.10
2022-12-27T11:45:40.997Z,1.57
2022-12-27T11:48:20.716Z,1.57
2022-12-27T11:50:58.601Z,5.20
2022-12-27T11:53:56.551Z,2.30
2022-12-27T11:56:28.946Z,4.20
2022-12-27T11:59:26.528Z,2.60
2022-12-27T12:02:08.246Z,1.53
2022-12-27T12:05:04.883Z,1.73
2022-12-27T12:07:51.228Z,1.67
2022-12-27T12:10:30.188Z,2.97
2022-12-27T12:13:21.248Z,1.20
2022-12-27T12:16:05.697Z,0.70
2022-12-27T12:18:56.553Z,1.10
2022-12-27T12:21:26.738Z,0.70
2022-12-27T12:24:30.935Z,0.80
2022-12-27T12:27:13.952Z,3.37
2022-12-27T12:30:29.132Z,1.30
2022-12-27T12:33:10.783Z,1.43
2022-12-27T12:35:51.150Z,0.50
2022-12-27T12:38:24.876Z,1.47
2022-12-27T12:41:12.811Z,0.57
2022-12-27T12:44:26.550Z,1.23
2022-12-27T12:46:58.867Z,0.60
2022-12-27T12:49:36.463Z,0.40
2022-12-27T12:52:24.924Z,1.00
2022-12-27T12:55:14.865Z,1.50
2022-12-27T12:57:50.585Z,1.00
2022-12-27T13:00:51.508Z,1.00
2022-12-27T13:03:56.586Z,3.20
2022-12-27T13:06:56.421Z,1.90
2022-12-27T13:09:36.491Z,7.77
2022-12-27T13:12:08.393Z,5.20
2022-12-27T13:14:54.199Z,3.17
2022-12-27T13:17:27.564Z,2.53
2022-12-27T13:20:03.791Z,1.33
2022-12-27T13:22:41.703Z,5.67
2022-12-27T13:25:19.560Z,2.43
2022-12-27T13:27:57.552Z,1.20
2022-12-27T13:30:31.776Z,3.43
2022-12-27T13:33:18.501Z,6.27
2022-12-27T13:36:01.097Z,7.77
2022-12-27T13:38:41.589Z,5.50
2022-12-27T13:41:29.863Z,4.57
2022-12-27T13:44:24.877Z,1.27
2022-12-27T13:47:24.660Z,1.40
2022-12-27T13:50:27.458Z,4.57
2022-12-27T13:53:13.930Z,6.93
2022-12-27T13:55:56.668Z,5.70
2022-12-27T13:59:00.805Z,13.50
2022-12-27T14:01:50.551Z,29.07
2022-12-27T14:04:36.094Z,11.10
2022-12-27T14:07:31.137Z,7.03
2022-12-27T14:10:10.363Z,6.80
2022-12-27T14:12:57.894Z,6.07
2022-12-27T14:15:36.578Z,5.03
2022-12-27T14:18:20.003Z,4.00
2022-12-27T14:21:05.464Z,2.43
2022-12-27T14:23:52.118Z,4.80
2022-12-27T14:26:56.604Z,7.27
2022-12-27T14:29:58.211Z,6.47
2022-12-27T14:33:03.137Z,8.97
2022-12-27T14:35:54.349Z,7.13
2022-12-27T14:39:20.285Z,6.93
2022-12-27T14:42:30.286Z,13.80
2022-12-27T14:45:22.666Z,19.63
2022-12-27T14:48:11.595Z,15.37
2022-12-27T14:54:38.043Z,20.67
2022-12-27T14:57:16.021Z,14.13
2022-12-27T14:59:50.754Z,14.10
2022-12-27T15:02:42.429Z,8.97
2022-12-27T15:05:32.624Z,8.43
2022-12-27T15:08:23.747Z,5.43
2022-12-27T15:11:02.642Z,5.27
2022-12-27T15:13:45.329Z,4.50
2022-12-27T15:16:17.731Z,3.17
2022-12-27T15:19:00.919Z,5.70
2022-12-27T15:21:46.665Z,6.13
2022-12-27T15:24:28.871Z,8.60
2022-12-27T15:27:01.854Z,11.93
2022-12-27T15:29:40.972Z,16.03
2022-12-27T15:32:21.871Z,15.50
2022-12-27T15:35:02.177Z,19.23
2022-12-27T15:37:59.239Z,7.27
2022-12-27T15:40:42.284Z,8.50
2022-12-27T15:43:22.749Z,8.80
2022-12-27T15:46:00.091Z,12.93
2022-12-27T15:48:53.684Z,27.40
2022-12-27T15:51:30.639Z,21.00
2022-12-27T15:54:27.013Z,20.87
2022-12-27T15:57:18.667Z,20.63
2022-12-27T15:59:49.053Z,14.93
2022-12-27T16:02:38.631Z,14.77
2022-12-27T16:05:13.800Z,14.37
2022-12-27T16:07:44.864Z,20.37
2022-12-27T16:10:35.784Z,25.03
2022-12-27T16:13:42.440Z,21.77
2022-12-27T16:16:28.384Z,19.90
2022-12-27T16:19:15.248Z,36.03
2022-12-27T16:21:44.846Z,38.23
2022-12-27T16:24:17.023Z,31.17
2022-12-27T16:26:52.593Z,23.83
2022-12-27T16:29:25.956Z,17.50
2022-12-27T16:32:18.893Z,19.90
2022-12-27T16:34:50.930Z,19.97
2022-12-27T16:37:27.972Z,20.47
2022-12-27T16:40:11.043Z,28.77
2022-12-27T16:43:24.693Z,20.27
2022-12-27T16:45:59.952Z,12.07
2022-12-27T16:48:35.554Z,11.70
2022-12-27T16:51:13.839Z,14.60
2022-12-27T16:54:06.341Z,8.87
2022-12-27T16:56:41.815Z,11.70
2022-12-27T16:59:43.735Z,11.73
2022-12-27T17:02:39.348Z,10.67
2022-12-27T17:05:36.620Z,6.93
2022-12-27T17:08:25.881Z,4.93
2022-12-27T17:11:03.240Z,5.50
2022-12-27T17:13:47.552Z,6.70
2022-12-27T17:16:23.270Z,6.13
2022-12-27T17:18:56.188Z,6.67
2022-12-27T17:21:30.835Z,8.80
2022-12-27T17:24:11.034Z,11.17
2022-12-27T17:26:52.523Z,10.63
2022-12-27T17:29:50.928Z,12.17
2022-12-27T17:32:28.831Z,13.90
2022-12-27T17:35:05.000Z,12.63
2022-12-27T17:37:41.518Z,15.10
2022-12-27T17:40:19.684Z,13.87
2022-12-27T17:43:13.527Z,14.73
2022-12-27T17:45:47.098Z,24.73
2022-12-27T17:48:25.340Z,23.10
2022-12-27T17:50:57.543Z,18.80
2022-12-27T17:53:43.627Z,19.93
2022-12-27T17:56:35.259Z,44.87
2022-12-27T17:59:10.284Z,39.63
2022-12-27T18:01:45.259Z,35.10
2022-12-27T18:04:20.516Z,31.63
2022-12-27T18:06:51.079Z,24.87
2022-12-27T18:09:36.514Z,22.07
2022-12-27T18:12:11.643Z,23.17
2022-12-27T18:14:40.234Z,14.57
2022-12-27T18:17:10.993Z,14.23
2022-12-27T18:19:39.602Z,14.97
2022-12-27T18:22:20.474Z,21.37
2022-12-27T18:24:49.043Z,13.47
2022-12-27T18:27:20.204Z,12.93
2022-12-27T18:29:48.804Z,13.37
2022-12-27T18:32:19.440Z,12.50
2022-12-27T18:34:51.028Z,13.20
2022-12-27T18:37:23.846Z,15.27
2022-12-27T18:39:54.019Z,11.40
2022-12-27T18:42:28.251Z,14.43
2022-12-27T18:44:59.601Z,14.17
2022-12-27T18:47:29.049Z,26.10
2022-12-27T18:49:59.745Z,20.30
2022-12-27T18:52:33.082Z,16.77
2022-12-27T18:55:16.428Z,17.13
2022-12-27T18:57:45.329Z,17.90
2022-12-27T19:00:24.321Z,13.87
2022-12-27T19:02:54.587Z,14.37
2022-12-27T19:05:26.543Z,11.93
2022-12-27T19:08:00.618Z,10.37
2022-12-27T19:10:30.818Z,12.23
2022-12-27T19:12:59.659Z,10.90
2022-12-27T19:15:30.028Z,10.70
2022-12-27T19:18:01.010Z,12.07
2022-12-27T19:20:31.025Z,12.73
2022-12-27T19:23:02.350Z,11.90
2022-12-27T19:25:32.284Z,10.37
2022-12-27T19:28:03.978Z,9.60
2022-12-27T19:30:34.638Z,21.47
2022-12-27T19:33:04.412Z,24.53
2022-12-27T19:35:32.957Z,24.40
2022-12-27T19:38:04.088Z,54.47
2022-12-27T19:40:32.685Z,36.43
2022-12-27T19:43:01.249Z,22.47
2022-12-27T19:45:30.093Z,24.30
2022-12-27T19:47:58.700Z,18.70
2022-12-27T19:50:27.241Z,18.80
2022-12-27T19:52:55.837Z,15.53
2022-12-27T19:55:27.303Z,15.50
2022-12-27T19:57:56.928Z,15.53
2022-12-27T20:00:25.551Z,14.90
2022-12-27T20:02:54.233Z,14.20
2022-12-27T20:06:13.953Z,14.50
2022-12-27T20:08:24.628Z,14.10
2022-12-27T20:10:54.935Z,15.30
2022-12-27T20:13:24.591Z,13.60
2022-12-27T20:15:54.623Z,15.00
2022-12-27T20:18:23.500Z,15.43
2022-12-27T20:20:52.290Z,13.50
2022-12-27T20:23:21.311Z,13.33
2022-12-27T20:25:51.428Z,14.20
2022-12-27T20:28:21.436Z,15.47
2022-12-27T20:30:49.958Z,14.67
2022-12-27T20:33:19.135Z,15.30
2022-12-27T20:35:56.254Z,14.33
2022-12-27T20:38:25.338Z,13.57
2022-12-27T20:40:54.164Z,14.83
2022-12-27T20:43:24.760Z,14.27
2022-12-27T20:45:53.507Z,14.70
2022-12-27T20:48:22.095Z,15.50
2022-12-27T20:50:51.164Z,15.73
2022-12-27T20:53:19.889Z,15.00
2022-12-27T20:56:01.373Z,14.40
2022-12-27T20:58:31.970Z,19.30
2022-12-27T21:01:07.128Z,18.70
2022-12-27T21:03:36.199Z,19.43
2022-12-27T21:06:09.816Z,18.67
2022-12-27T21:08:45.588Z,15.77
2022-12-27T21:11:17.640Z,15.60
2022-12-27T21:13:48.856Z,15.83
2022-12-27T21:16:19.439Z,15.80
2022-12-27T21:18:48.626Z,14.70
2022-12-27T21:21:19.917Z,17.53
2022-12-27T21:23:49.697Z,19.27
2022-12-27T21:26:20.496Z,20.37
2022-12-27T21:28:50.881Z,21.17
2022-12-27T21:31:19.911Z,19.80
2022-12-27T21:33:48.827Z,21.17
2022-12-27T21:36:20.041Z,19.13
2022-12-27T21:38:49.616Z,16.70
2022-12-27T21:41:26.363Z,16.27
2022-12-27T21:44:03.016Z,14.20
2022-12-27T21:46:49.021Z,14.43
2022-12-27T21:49:18.076Z,15.07
2022-12-27T21:51:46.819Z,15.10
2022-12-27T21:54:16.341Z,14.57
2022-12-27T21:56:45.241Z,14.50
2022-12-27T21:59:15.265Z,16.03
2022-12-27T22:01:51.932Z,14.00
2022-12-27T22:04:21.735Z,14.67
2022-12-27T22:06:50.952Z,12.27
2022-12-27T22:09:20.066Z,8.80
2022-12-27T22:11:49.027Z,10.40
2022-12-27T22:14:24.912Z,10.47
2022-12-27T22:16:54.452Z,12.33
2022-12-27T22:19:23.152Z,11.03
2022-12-27T22:21:51.684Z,12.37
2022-12-27T22:24:20.917Z,15.13
2022-12-27T22:26:50.400Z,25.97
2022-12-27T22:29:21.753Z,77.13
2022-12-27T22:31:50.296Z,40.63
2022-12-27T22:34:18.860Z,27.43
2022-12-27T22:36:47.328Z,19.13
2022-12-27T22:39:15.879Z,17.40
2022-12-27T22:41:44.508Z,15.20
2022-12-27T22:44:15.073Z,12.97
2022-12-27T22:47:15.657Z,12.80
2022-12-27T22:49:34.921Z,13.70
2022-12-27T22:52:03.472Z,13.43
2022-12-27T22:55:05.443Z,140.43
2022-12-27T22:57:20.618Z,76.70
2022-12-27T22:59:49.228Z,40.50
2022-12-27T23:02:19.320Z,26.13
2022-12-27T23:04:48.059Z,19.60
2022-12-27T23:07:20.079Z,15.90
2022-12-27T23:09:48.876Z,14.23
2022-12-27T23:12:17.449Z,14.67
2022-12-27T23:14:46.035Z,14.43
2022-12-27T23:17:14.557Z,11.53
2022-12-27T23:19:44.542Z,9.93
2022-12-27T23:22:13.049Z,9.37
2022-12-27T23:24:41.705Z,8.67
2022-12-27T23:27:10.197Z,9.23
2022-12-27T23:29:38.896Z,9.43
2022-12-27T23:32:07.492Z,10.57
2022-12-27T23:34:36.010Z,10.27
2022-12-27T23:37:06.038Z,11.37
2022-12-27T23:39:34.611Z,12.43
2022-12-27T23:42:03.208Z,9.83
2022-12-27T23:44:32.981Z,10.03
2022-12-27T23:47:02.146Z,10.53
2022-12-27T23:49:31.014Z,9.43
2022-12-27T23:51:59.602Z,10.00
2022-12-27T23:54:29.547Z,11.57
2022-12-27T23:56:58.075Z,29.23
2022-12-27T23:59:26.597Z,31.53
